sensor_id;sensor_type;location;lat;lon;timestamp;P1;durP1;ratioP1;P2;durP2;ratioP2
8803;SDS011;4438;50.890;4.726;2023-04-01T00:00:59;4.37;;;2.00;;
8803;SDS011;4438;50.890;4.726;2023-04-01T00:03:25;3.63;;;1.80;;
8803;SDS011;4438;50.890;4.726;2023-04-01T00:05:52;3.30;;;1.83;;
8803;SDS011;4438;50.890;4.726;2023-04-01T00:08:18;2.73;;;1.70;;
8803;SDS011;4438;50.890;4.726;2023-04-01T00:10:44;4.07;;;1.63;;
8803;SDS011;4438;50.890;4.726;2023-04-01T00:13:10;4.33;;;1.90;;
8803;SDS011;4438;50.890;4.726;2023-04-01T00:15:36;2.43;;;1.50;;
8803;SDS011;4438;50.890;4.726;2023-04-01T00:18:03;4.80;;;2.00;;
8803;SDS011;4438;50.890;4.726;2023-04-01T00:20:29;3.10;;;1.60;;
8803;SDS011;4438;50.890;4.726;2023-04-01T00:22:55;4.00;;;1.63;;
8803;SDS011;4438;50.890;4.726;2023-04-01T00:25:22;4.07;;;2.07;;
8803;SDS011;4438;50.890;4.726;2023-04-01T00:27:48;5.10;;;2.23;;
8803;SDS011;4438;50.890;4.726;2023-04-01T00:30:15;3.73;;;1.83;;
8803;SDS011;4438;50.890;4.726;2023-04-01T00:32:41;5.77;;;1.77;;
8803;SDS011;4438;50.890;4.726;2023-04-01T00:35:07;3.50;;;1.60;;
8803;SDS011;4438;50.890;4.726;2023-04-01T00:37:36;3.53;;;1.83;;
8803;SDS011;4438;50.890;4.726;2023-04-01T00:40:04;3.47;;;1.77;;
8803;SDS011;4438;50.890;4.726;2023-04-01T00:42:31;4.83;;;1.80;;
8803;SDS011;4438;50.890;4.726;2023-04-01T00:44:57;7.00;;;2.00;;
8803;SDS011;4438;50.890;4.726;2023-04-01T00:47:24;4.60;;;1.90;;
8803;SDS011;4438;50.890;4.726;2023-04-01T00:49:51;4.57;;;1.93;;
8803;SDS011;4438;50.890;4.726;2023-04-01T00:52:20;4.07;;;1.53;;
8803;SDS011;4438;50.890;4.726;2023-04-01T00:54:48;3.00;;;1.60;;
8803;SDS011;4438;50.890;4.726;2023-04-01T00:57:24;7.47;;;1.80;;
8803;SDS011;4438;50.890;4.726;2023-04-01T00:59:52;3.27;;;1.60;;
8803;SDS011;4438;50.890;4.726;2023-04-01T01:02:19;3.53;;;1.70;;
8803;SDS011;4438;50.890;4.726;2023-04-01T01:04:45;4.33;;;1.70;;
8803;SDS011;4438;50.890;4.726;2023-04-01T01:10:16;4.53;;;1.40;;
8803;SDS011;4438;50.890;4.726;2023-04-01T01:15:47;4.73;;;1.70;;
8803;SDS011;4438;50.890;4.726;2023-04-01T01:18:18;2.77;;;1.70;;
8803;SDS011;4438;50.890;4.726;2023-04-01T01:32:00;3.10;;;1.70;;
8803;SDS011;4438;50.890;4.726;2023-04-01T01:37:14;3.73;;;1.60;;
8803;SDS011;4438;50.890;4.726;2023-04-01T01:39:41;2.30;;;1.57;;
8803;SDS011;4438;50.890;4.726;2023-04-01T01:42:09;2.97;;;1.70;;
8803;SDS011;4438;50.890;4.726;2023-04-01T01:44:36;2.60;;;1.70;;
8803;SDS011;4438;50.890;4.726;2023-04-01T01:47:03;2.97;;;1.60;;
8803;SDS011;4438;50.890;4.726;2023-04-01T01:49:31;2.80;;;1.80;;
8803;SDS011;4438;50.890;4.726;2023-04-01T01:51:58;5.53;;;2.10;;
8803;SDS011;4438;50.890;4.726;2023-04-01T01:54:24;3.53;;;1.87;;
8803;SDS011;4438;50.890;4.726;2023-04-01T01:56:51;2.90;;;1.90;;
8803;SDS011;4438;50.890;4.726;2023-04-01T01:59:20;2.30;;;1.50;;
8803;SDS011;4438;50.890;4.726;2023-04-01T02:01:51;2.60;;;1.73;;
8803;SDS011;4438;50.890;4.726;2023-04-01T02:04:18;2.93;;;2.07;;
8803;SDS011;4438;50.890;4.726;2023-04-01T02:06:56;1.60;;;1.50;;
8803;SDS011;4438;50.890;4.726;2023-04-01T02:09:23;2.20;;;1.60;;
8803;SDS011;4438;50.890;4.726;2023-04-01T02:11:56;2.73;;;1.60;;
8803;SDS011;4438;50.890;4.726;2023-04-01T02:14:23;4.10;;;2.10;;
8803;SDS011;4438;50.890;4.726;2023-04-01T02:16:55;2.20;;;1.83;;
8803;SDS011;4438;50.890;4.726;2023-04-01T02:19:22;3.17;;;2.10;;
8803;SDS011;4438;50.890;4.726;2023-04-01T02:21:52;5.90;;;2.27;;
8803;SDS011;4438;50.890;4.726;2023-04-01T02:24:18;3.93;;;2.40;;
8803;SDS011;4438;50.890;4.726;2023-04-01T02:26:50;3.53;;;2.70;;
8803;SDS011;4438;50.890;4.726;2023-04-01T02:29:17;3.40;;;2.57;;
8803;SDS011;4438;50.890;4.726;2023-04-01T02:31:43;3.47;;;2.63;;
8803;SDS011;4438;50.890;4.726;2023-04-01T02:34:10;2.97;;;2.60;;
8803;SDS011;4438;50.890;4.726;2023-04-01T02:36:36;4.10;;;2.70;;
8803;SDS011;4438;50.890;4.726;2023-04-01T02:39:02;2.23;;;2.03;;
8803;SDS011;4438;50.890;4.726;2023-04-01T02:41:29;3.03;;;2.50;;
8803;SDS011;4438;50.890;4.726;2023-04-01T02:43:56;3.97;;;2.50;;
8803;SDS011;4438;50.890;4.726;2023-04-01T02:46:23;4.17;;;2.63;;
8803;SDS011;4438;50.890;4.726;2023-04-01T02:48:50;2.90;;;2.40;;
8803;SDS011;4438;50.890;4.726;2023-04-01T02:51:16;4.40;;;2.83;;
8803;SDS011;4438;50.890;4.726;2023-04-01T02:53:42;3.87;;;3.37;;
8803;SDS011;4438;50.890;4.726;2023-04-01T02:56:08;3.23;;;2.93;;
8803;SDS011;4438;50.890;4.726;2023-04-01T02:58:34;4.70;;;2.83;;
8803;SDS011;4438;50.890;4.726;2023-04-01T03:01:00;4.60;;;2.63;;
8803;SDS011;4438;50.890;4.726;2023-04-01T03:03:26;5.57;;;3.30;;
8803;SDS011;4438;50.890;4.726;2023-04-01T03:05:52;4.20;;;2.97;;
8803;SDS011;4438;50.890;4.726;2023-04-01T03:08:21;5.23;;;3.20;;
8803;SDS011;4438;50.890;4.726;2023-04-01T03:10:47;6.03;;;2.87;;
8803;SDS011;4438;50.890;4.726;2023-04-01T03:13:13;5.37;;;3.10;;
8803;SDS011;4438;50.890;4.726;2023-04-01T03:15:39;6.47;;;3.30;;
8803;SDS011;4438;50.890;4.726;2023-04-01T03:18:05;6.10;;;2.90;;
8803;SDS011;4438;50.890;4.726;2023-04-01T03:20:31;4.03;;;2.90;;
8803;SDS011;4438;50.890;4.726;2023-04-01T03:22:57;3.87;;;3.03;;
8803;SDS011;4438;50.890;4.726;2023-04-01T03:25:23;7.73;;;3.13;;
8803;SDS011;4438;50.890;4.726;2023-04-01T03:27:50;5.13;;;3.37;;
8803;SDS011;4438;50.890;4.726;2023-04-01T03:30:16;5.83;;;3.17;;
8803;SDS011;4438;50.890;4.726;2023-04-01T03:32:42;5.00;;;3.10;;
8803;SDS011;4438;50.890;4.726;2023-04-01T03:35:08;6.87;;;3.40;;
8803;SDS011;4438;50.890;4.726;2023-04-01T03:37:35;7.63;;;3.67;;
8803;SDS011;4438;50.890;4.726;2023-04-01T03:40:01;6.33;;;3.90;;
8803;SDS011;4438;50.890;4.726;2023-04-01T03:42:28;5.63;;;3.70;;
8803;SDS011;4438;50.890;4.726;2023-04-01T03:44:56;6.23;;;3.77;;
8803;SDS011;4438;50.890;4.726;2023-04-01T03:47:22;8.50;;;3.63;;
8803;SDS011;4438;50.890;4.726;2023-04-01T03:49:48;7.97;;;4.27;;
8803;SDS011;4438;50.890;4.726;2023-04-01T03:52:14;7.20;;;4.13;;
8803;SDS011;4438;50.890;4.726;2023-04-01T03:54:40;7.57;;;4.30;;
8803;SDS011;4438;50.890;4.726;2023-04-01T03:57:06;10.77;;;5.40;;
8803;SDS011;4438;50.890;4.726;2023-04-01T03:59:32;7.33;;;4.30;;
8803;SDS011;4438;50.890;4.726;2023-04-01T04:01:59;7.00;;;4.30;;
8803;SDS011;4438;50.890;4.726;2023-04-01T04:04:25;7.73;;;5.07;;
8803;SDS011;4438;50.890;4.726;2023-04-01T04:06:51;8.53;;;5.53;;
8803;SDS011;4438;50.890;4.726;2023-04-01T04:09:17;9.23;;;5.53;;
8803;SDS011;4438;50.890;4.726;2023-04-01T04:11:43;7.80;;;5.67;;
8803;SDS011;4438;50.890;4.726;2023-04-01T04:14:09;8.63;;;6.03;;
8803;SDS011;4438;50.890;4.726;2023-04-01T04:16:36;10.80;;;5.63;;
8803;SDS011;4438;50.890;4.726;2023-04-01T04:19:03;8.07;;;5.33;;
8803;SDS011;4438;50.890;4.726;2023-04-01T04:21:29;11.13;;;6.30;;
8803;SDS011;4438;50.890;4.726;2023-04-01T04:23:55;13.13;;;6.27;;
8803;SDS011;4438;50.890;4.726;2023-04-01T04:26:21;10.60;;;6.40;;
8803;SDS011;4438;50.890;4.726;2023-04-01T04:28:47;9.37;;;6.57;;
8803;SDS011;4438;50.890;4.726;2023-04-01T04:31:17;9.90;;;6.37;;
8803;SDS011;4438;50.890;4.726;2023-04-01T04:33:44;11.00;;;6.53;;
8803;SDS011;4438;50.890;4.726;2023-04-01T04:36:10;11.70;;;7.30;;
8803;SDS011;4438;50.890;4.726;2023-04-01T04:38:36;11.87;;;6.77;;
8803;SDS011;4438;50.890;4.726;2023-04-01T04:41:02;10.50;;;6.43;;
8803;SDS011;4438;50.890;4.726;2023-04-01T04:43:29;11.63;;;5.77;;
8803;SDS011;4438;50.890;4.726;2023-04-01T04:45:55;9.23;;;5.90;;
8803;SDS011;4438;50.890;4.726;2023-04-01T04:48:21;8.93;;;5.60;;
8803;SDS011;4438;50.890;4.726;2023-04-01T04:50:47;9.67;;;5.30;;
8803;SDS011;4438;50.890;4.726;2023-04-01T04:53:15;6.90;;;4.93;;
8803;SDS011;4438;50.890;4.726;2023-04-01T04:55:48;6.93;;;5.17;;
8803;SDS011;4438;50.890;4.726;2023-04-01T04:58:15;8.57;;;5.07;;
8803;SDS011;4438;50.890;4.726;2023-04-01T05:00:41;6.50;;;4.80;;
8803;SDS011;4438;50.890;4.726;2023-04-01T05:03:08;8.03;;;4.87;;
8803;SDS011;4438;50.890;4.726;2023-04-01T05:05:34;5.60;;;3.97;;
8803;SDS011;4438;50.890;4.726;2023-04-01T05:08:00;6.17;;;4.20;;
8803;SDS011;4438;50.890;4.726;2023-04-01T05:10:27;4.27;;;3.80;;
8803;SDS011;4438;50.890;4.726;2023-04-01T05:12:53;6.93;;;4.20;;
8803;SDS011;4438;50.890;4.726;2023-04-01T05:15:19;7.03;;;4.37;;
8803;SDS011;4438;50.890;4.726;2023-04-01T05:17:45;5.50;;;3.90;;
8803;SDS011;4438;50.890;4.726;2023-04-01T05:20:12;3.63;;;3.33;;
8803;SDS011;4438;50.890;4.726;2023-04-01T05:22:38;5.93;;;3.90;;
8803;SDS011;4438;50.890;4.726;2023-04-01T05:25:05;4.37;;;2.90;;
8803;SDS011;4438;50.890;4.726;2023-04-01T05:27:31;4.23;;;3.37;;
8803;SDS011;4438;50.890;4.726;2023-04-01T05:29:57;3.20;;;2.90;;
8803;SDS011;4438;50.890;4.726;2023-04-01T05:32:23;3.30;;;3.00;;
8803;SDS011;4438;50.890;4.726;2023-04-01T05:34:50;6.27;;;3.53;;
8803;SDS011;4438;50.890;4.726;2023-04-01T05:37:17;3.27;;;2.70;;
8803;SDS011;4438;50.890;4.726;2023-04-01T05:39:43;5.20;;;3.13;;
8803;SDS011;4438;50.890;4.726;2023-04-01T05:42:09;3.13;;;2.87;;
8803;SDS011;4438;50.890;4.726;2023-04-01T05:44:35;4.20;;;2.50;;
8803;SDS011;4438;50.890;4.726;2023-04-01T05:47:02;3.27;;;2.60;;
8803;SDS011;4438;50.890;4.726;2023-04-01T05:49:28;2.60;;;2.37;;
8803;SDS011;4438;50.890;4.726;2023-04-01T05:51:54;3.00;;;2.30;;
8803;SDS011;4438;50.890;4.726;2023-04-01T05:54:20;2.97;;;2.10;;
8803;SDS011;4438;50.890;4.726;2023-04-01T05:56:46;2.90;;;2.20;;
8803;SDS011;4438;50.890;4.726;2023-04-01T05:59:12;3.17;;;2.27;;
8803;SDS011;4438;50.890;4.726;2023-04-01T06:01:39;3.63;;;2.40;;
8803;SDS011;4438;50.890;4.726;2023-04-01T06:04:05;3.33;;;3.03;;
8803;SDS011;4438;50.890;4.726;2023-04-01T06:06:31;3.20;;;2.77;;
8803;SDS011;4438;50.890;4.726;2023-04-01T06:09:00;4.30;;;3.43;;
8803;SDS011;4438;50.890;4.726;2023-04-01T06:17:04;4.43;;;3.40;;
8803;SDS011;4438;50.890;4.726;2023-04-01T06:24:34;5.67;;;4.13;;
8803;SDS011;4438;50.890;4.726;2023-04-01T06:33:01;9.47;;;5.03;;
8803;SDS011;4438;50.890;4.726;2023-04-01T06:35:22;5.53;;;4.70;;
8803;SDS011;4438;50.890;4.726;2023-04-01T06:45:55;6.73;;;4.40;;
8803;SDS011;4438;50.890;4.726;2023-04-01T06:56:16;6.60;;;4.97;;
8803;SDS011;4438;50.890;4.726;2023-04-01T06:58:51;5.77;;;5.17;;
8803;SDS011;4438;50.890;4.726;2023-04-01T07:01:21;5.73;;;4.97;;
8803;SDS011;4438;50.890;4.726;2023-04-01T07:03:53;5.47;;;4.80;;
8803;SDS011;4438;50.890;4.726;2023-04-01T07:08:58;5.23;;;4.23;;
8803;SDS011;4438;50.890;4.726;2023-04-01T07:11:33;6.53;;;4.60;;
8803;SDS011;4438;50.890;4.726;2023-04-01T07:14:01;8.33;;;5.23;;
8803;SDS011;4438;50.890;4.726;2023-04-01T07:16:46;6.00;;;5.40;;
8803;SDS011;4438;50.890;4.726;2023-04-01T07:22:00;5.67;;;4.83;;
8803;SDS011;4438;50.890;4.726;2023-04-01T07:24:29;5.43;;;4.47;;
8803;SDS011;4438;50.890;4.726;2023-04-01T07:26:57;6.27;;;4.70;;
8803;SDS011;4438;50.890;4.726;2023-04-01T07:29:24;6.00;;;4.73;;
8803;SDS011;4438;50.890;4.726;2023-04-01T07:34:39;5.67;;;4.40;;
8803;SDS011;4438;50.890;4.726;2023-04-01T07:39:40;5.03;;;4.30;;
8803;SDS011;4438;50.890;4.726;2023-04-01T07:47:45;3.30;;;2.20;;
8803;SDS011;4438;50.890;4.726;2023-04-01T07:50:26;2.17;;;1.70;;
8803;SDS011;4438;50.890;4.726;2023-04-01T07:52:59;1.73;;;1.63;;
8803;SDS011;4438;50.890;4.726;2023-04-01T08:00:29;1.93;;;1.70;;
8803;SDS011;4438;50.890;4.726;2023-04-01T08:03:17;2.20;;;1.87;;
8803;SDS011;4438;50.890;4.726;2023-04-01T08:10:59;2.70;;;1.90;;
8803;SDS011;4438;50.890;4.726;2023-04-01T08:15:57;4.47;;;2.27;;
8803;SDS011;4438;50.890;4.726;2023-04-01T08:20:58;1.80;;;1.70;;
8803;SDS011;4438;50.890;4.726;2023-04-01T08:23:32;1.50;;;1.40;;
8803;SDS011;4438;50.890;4.726;2023-04-01T08:28:59;2.60;;;1.33;;
8803;SDS011;4438;50.890;4.726;2023-04-01T08:31:30;2.00;;;1.17;;
8803;SDS011;4438;50.890;4.726;2023-04-01T08:33:58;1.30;;;1.20;;
8803;SDS011;4438;50.890;4.726;2023-04-01T08:36:34;1.97;;;1.20;;
8803;SDS011;4438;50.890;4.726;2023-04-01T08:39:09;1.33;;;1.10;;
8803;SDS011;4438;50.890;4.726;2023-04-01T08:46:56;1.40;;;1.30;;
8803;SDS011;4438;50.890;4.726;2023-04-01T08:59:44;1.57;;;1.47;;
8803;SDS011;4438;50.890;4.726;2023-04-01T09:04:48;3.60;;;1.77;;
8803;SDS011;4438;50.890;4.726;2023-04-01T09:28:36;2.03;;;1.93;;
8803;SDS011;4438;50.890;4.726;2023-04-01T09:36:25;2.10;;;1.60;;
8803;SDS011;4438;50.890;4.726;2023-04-01T09:38:58;1.80;;;1.70;;
8803;SDS011;4438;50.890;4.726;2023-04-01T09:41:29;2.43;;;1.57;;
8803;SDS011;4438;50.890;4.726;2023-04-01T09:46:23;2.17;;;2.07;;
8803;SDS011;4438;50.890;4.726;2023-04-01T09:53:55;2.20;;;2.00;;
8803;SDS011;4438;50.890;4.726;2023-04-01T10:06:52;2.60;;;2.40;;
8803;SDS011;4438;50.890;4.726;2023-04-01T10:22:59;4.00;;;3.67;;
8803;SDS011;4438;50.890;4.726;2023-04-01T10:28:22;3.37;;;3.07;;
8803;SDS011;4438;50.890;4.726;2023-04-01T10:38:55;3.70;;;3.27;;
8803;SDS011;4438;50.890;4.726;2023-04-01T10:57:19;2.73;;;2.53;;
8803;SDS011;4438;50.890;4.726;2023-04-01T11:02:55;3.70;;;3.00;;
8803;SDS011;4438;50.890;4.726;2023-04-01T11:18:39;2.00;;;1.80;;
8803;SDS011;4438;50.890;4.726;2023-04-01T11:23:50;1.53;;;1.43;;
8803;SDS011;4438;50.890;4.726;2023-04-01T11:29:01;2.97;;;1.60;;
8803;SDS011;4438;50.890;4.726;2023-04-01T11:37:00;1.33;;;1.23;;
8803;SDS011;4438;50.890;4.726;2023-04-01T11:42:05;1.60;;;1.50;;
8803;SDS011;4438;50.890;4.726;2023-04-01T11:44:34;2.07;;;1.40;;
8803;SDS011;4438;50.890;4.726;2023-04-01T11:55:23;1.77;;;1.67;;
8803;SDS011;4438;50.890;4.726;2023-04-01T11:58:14;1.67;;;1.57;;
8803;SDS011;4438;50.890;4.726;2023-04-01T12:03:20;1.93;;;1.57;;
8803;SDS011;4438;50.890;4.726;2023-04-01T12:13:42;1.77;;;1.67;;
8803;SDS011;4438;50.890;4.726;2023-04-01T12:18:59;1.73;;;1.57;;
8803;SDS011;4438;50.890;4.726;2023-04-01T12:21:31;1.70;;;1.60;;
8803;SDS011;4438;50.890;4.726;2023-04-01T12:31:46;1.30;;;1.20;;
8803;SDS011;4438;50.890;4.726;2023-04-01T12:34:35;1.30;;;1.20;;
8803;SDS011;4438;50.890;4.726;2023-04-01T12:42:15;1.67;;;1.30;;
8803;SDS011;4438;50.890;4.726;2023-04-01T12:44:49;1.60;;;1.50;;
8803;SDS011;4438;50.890;4.726;2023-04-01T12:58:06;1.80;;;1.70;;
8803;SDS011;4438;50.890;4.726;2023-04-01T13:00:39;2.50;;;2.30;;
8803;SDS011;4438;50.890;4.726;2023-04-01T13:03:20;3.00;;;2.00;;
8803;SDS011;4438;50.890;4.726;2023-04-01T13:13:48;1.10;;;1.10;;
8803;SDS011;4438;50.890;4.726;2023-04-01T13:16:21;1.30;;;1.20;;
8803;SDS011;4438;50.890;4.726;2023-04-01T13:18:54;1.70;;;1.60;;
8803;SDS011;4438;50.890;4.726;2023-04-01T13:21:25;3.83;;;1.40;;
8803;SDS011;4438;50.890;4.726;2023-04-01T13:24:07;1.40;;;1.30;;
8803;SDS011;4438;50.890;4.726;2023-04-01T13:42:19;1.73;;;1.47;;
8803;SDS011;4438;50.890;4.726;2023-04-01T13:45:37;2.00;;;1.27;;
8803;SDS011;4438;50.890;4.726;2023-04-01T14:13:12;1.40;;;1.30;;
8803;SDS011;4438;50.890;4.726;2023-04-01T14:15:42;2.40;;;1.40;;
8803;SDS011;4438;50.890;4.726;2023-04-01T14:48:53;3.30;;;3.00;;
8803;SDS011;4438;50.890;4.726;2023-04-01T14:59:48;4.07;;;3.67;;
8803;SDS011;4438;50.890;4.726;2023-04-01T15:09:48;3.23;;;3.03;;
8803;SDS011;4438;50.890;4.726;2023-04-01T15:18:02;3.07;;;2.87;;
8803;SDS011;4438;50.890;4.726;2023-04-01T15:22:49;3.97;;;2.20;;
8803;SDS011;4438;50.890;4.726;2023-04-01T15:38:50;2.10;;;1.90;;
8803;SDS011;4438;50.890;4.726;2023-04-01T15:44:03;2.63;;;1.87;;
8803;SDS011;4438;50.890;4.726;2023-04-01T15:46:48;1.70;;;1.60;;
8803;SDS011;4438;50.890;4.726;2023-04-01T15:51:44;2.30;;;1.90;;
8803;SDS011;4438;50.890;4.726;2023-04-01T16:12:04;2.60;;;2.40;;
8803;SDS011;4438;50.890;4.726;2023-04-01T16:29:56;2.77;;;2.37;;
8803;SDS011;4438;50.890;4.726;2023-04-01T16:51:40;2.20;;;2.00;;
8803;SDS011;4438;50.890;4.726;2023-04-01T16:54:13;2.67;;;2.43;;
8803;SDS011;4438;50.890;4.726;2023-04-01T16:56:49;2.40;;;2.10;;
8803;SDS011;4438;50.890;4.726;2023-04-01T16:59:19;3.83;;;3.43;;
8803;SDS011;4438;50.890;4.726;2023-04-01T17:01:49;3.80;;;3.50;;
8803;SDS011;4438;50.890;4.726;2023-04-01T17:04:23;3.23;;;2.93;;
8803;SDS011;4438;50.890;4.726;2023-04-01T17:06:55;3.90;;;3.33;;
8803;SDS011;4438;50.890;4.726;2023-04-01T17:09:39;3.70;;;3.30;;
8803;SDS011;4438;50.890;4.726;2023-04-01T17:20:11;4.53;;;3.70;;
8803;SDS011;4438;50.890;4.726;2023-04-01T17:22:44;4.00;;;3.70;;
8803;SDS011;4438;50.890;4.726;2023-04-01T17:27:55;4.53;;;3.87;;
8803;SDS011;4438;50.890;4.726;2023-04-01T17:30:33;4.50;;;4.10;;
8803;SDS011;4438;50.890;4.726;2023-04-01T17:36:27;4.83;;;4.33;;
8803;SDS011;4438;50.890;4.726;2023-04-01T17:41:43;5.63;;;4.97;;
8803;SDS011;4438;50.890;4.726;2023-04-01T17:49:19;5.00;;;4.50;;
8803;SDS011;4438;50.890;4.726;2023-04-01T17:51:54;4.90;;;4.40;;
8803;SDS011;4438;50.890;4.726;2023-04-01T17:54:27;4.40;;;4.10;;
8803;SDS011;4438;50.890;4.726;2023-04-01T17:59:48;4.23;;;3.93;;
8803;SDS011;4438;50.890;4.726;2023-04-01T18:02:21;4.67;;;4.33;;
8803;SDS011;4438;50.890;4.726;2023-04-01T18:04:58;5.50;;;5.10;;
8803;SDS011;4438;50.890;4.726;2023-04-01T18:07:41;5.33;;;4.83;;
8803;SDS011;4438;50.890;4.726;2023-04-01T18:15:44;5.50;;;5.00;;
8803;SDS011;4438;50.890;4.726;2023-04-01T18:20:54;6.13;;;4.90;;
8803;SDS011;4438;50.890;4.726;2023-04-01T18:23:29;5.60;;;5.10;;
8803;SDS011;4438;50.890;4.726;2023-04-01T18:26:07;5.37;;;4.87;;
8803;SDS011;4438;50.890;4.726;2023-04-01T18:28:36;5.30;;;4.80;;
8803;SDS011;4438;50.890;4.726;2023-04-01T18:31:06;5.70;;;5.20;;
8803;SDS011;4438;50.890;4.726;2023-04-01T18:34:18;6.80;;;5.20;;
8803;SDS011;4438;50.890;4.726;2023-04-01T18:41:59;6.10;;;5.60;;
8803;SDS011;4438;50.890;4.726;2023-04-01T18:49:29;6.80;;;6.10;;
8803;SDS011;4438;50.890;4.726;2023-04-01T18:52:02;6.40;;;5.80;;
8803;SDS011;4438;50.890;4.726;2023-04-01T18:54:40;6.67;;;6.10;;
8803;SDS011;4438;50.890;4.726;2023-04-01T18:57:12;6.53;;;5.93;;
8803;SDS011;4438;50.890;4.726;2023-04-01T18:59:42;6.30;;;5.80;;
8803;SDS011;4438;50.890;4.726;2023-04-01T19:09:52;7.47;;;6.00;;
8803;SDS011;4438;50.890;4.726;2023-04-01T19:12:21;6.33;;;5.83;;
8803;SDS011;4438;50.890;4.726;2023-04-01T19:14:53;6.67;;;6.07;;
8803;SDS011;4438;50.890;4.726;2023-04-01T19:27:53;7.57;;;6.30;;
8803;SDS011;4438;50.890;4.726;2023-04-01T19:30:41;9.07;;;7.13;;
8803;SDS011;4438;50.890;4.726;2023-04-01T19:38:29;7.83;;;6.13;;
8803;SDS011;4438;50.890;4.726;2023-04-01T19:56:44;7.53;;;6.43;;
8803;SDS011;4438;50.890;4.726;2023-04-01T20:04:34;8.00;;;6.80;;
8803;SDS011;4438;50.890;4.726;2023-04-01T20:07:05;8.80;;;7.00;;
8803;SDS011;4438;50.890;4.726;2023-04-01T20:09:50;7.80;;;7.03;;
8803;SDS011;4438;50.890;4.726;2023-04-01T20:14:53;8.17;;;7.20;;
8803;SDS011;4438;50.890;4.726;2023-04-01T20:25:15;8.10;;;7.30;;
8803;SDS011;4438;50.890;4.726;2023-04-01T20:27:45;8.10;;;7.17;;
8803;SDS011;4438;50.890;4.726;2023-04-01T20:46:00;10.53;;;9.47;;
8803;SDS011;4438;50.890;4.726;2023-04-01T20:51:06;11.87;;;10.17;;
8803;SDS011;4438;50.890;4.726;2023-04-01T20:53:36;12.93;;;11.10;;
8803;SDS011;4438;50.890;4.726;2023-04-01T21:01:08;15.20;;;12.20;;
8803;SDS011;4438;50.890;4.726;2023-04-01T21:03:54;14.30;;;12.77;;
8803;SDS011;4438;50.890;4.726;2023-04-01T21:16:58;18.20;;;15.67;;
8803;SDS011;4438;50.890;4.726;2023-04-01T21:19:44;19.43;;;15.63;;
8803;SDS011;4438;50.890;4.726;2023-04-01T21:32:30;18.57;;;16.37;;
8803;SDS011;4438;50.890;4.726;2023-04-01T21:35:03;19.23;;;16.43;;
8803;SDS011;4438;50.890;4.726;2023-04-01T21:37:42;18.37;;;15.63;;
8803;SDS011;4438;50.890;4.726;2023-04-01T21:50:42;12.27;;;10.73;;
8803;SDS011;4438;50.890;4.726;2023-04-01T21:59:00;12.27;;;10.97;;
8803;SDS011;4438;50.890;4.726;2023-04-01T22:04:22;11.73;;;10.53;;
8803;SDS011;4438;50.890;4.726;2023-04-01T22:06:59;13.00;;;11.63;;
8803;SDS011;4438;50.890;4.726;2023-04-01T22:09:30;13.03;;;11.73;;
8803;SDS011;4438;50.890;4.726;2023-04-01T22:19:42;15.83;;;13.70;;
8803;SDS011;4438;50.890;4.726;2023-04-01T22:32:40;17.13;;;15.33;;
8803;SDS011;4438;50.890;4.726;2023-04-01T22:48:02;14.10;;;12.60;;
8803;SDS011;4438;50.890;4.726;2023-04-01T22:50:50;13.33;;;11.93;;
8803;SDS011;4438;50.890;4.726;2023-04-01T22:55:57;13.93;;;12.30;;
8803;SDS011;4438;50.890;4.726;2023-04-01T22:58:26;14.73;;;13.23;;
8803;SDS011;4438;50.890;4.726;2023-04-01T23:00:56;15.03;;;13.43;;
8803;SDS011;4438;50.890;4.726;2023-04-01T23:03:27;15.63;;;13.73;;
8803;SDS011;4438;50.890;4.726;2023-04-01T23:05:55;17.43;;;15.10;;
8803;SDS011;4438;50.890;4.726;2023-04-01T23:11:12;16.63;;;14.93;;
8803;SDS011;4438;50.890;4.726;2023-04-01T23:13:44;16.07;;;14.47;;
8803;SDS011;4438;50.890;4.726;2023-04-01T23:16:13;15.97;;;14.37;;
8803;SDS011;4438;50.890;4.726;2023-04-01T23:18:50;15.80;;;14.10;;
8803;SDS011;4438;50.890;4.726;2023-04-01T23:21:19;15.23;;;13.73;;
8803;SDS011;4438;50.890;4.726;2023-04-01T23:26:15;15.50;;;13.90;;
8803;SDS011;4438;50.890;4.726;2023-04-01T23:28:44;16.23;;;13.87;;
8803;SDS011;4438;50.890;4.726;2023-04-01T23:31:31;15.00;;;13.40;;
8803;SDS011;4438;50.890;4.726;2023-04-01T23:34:02;13.93;;;12.53;;
8803;SDS011;4438;50.890;4.726;2023-04-01T23:36:29;13.87;;;12.40;;
8803;SDS011;4438;50.890;4.726;2023-04-01T23:38:56;13.77;;;12.30;;
8803;SDS011;4438;50.890;4.726;2023-04-01T23:41:25;12.83;;;11.53;;
8803;SDS011;4438;50.890;4.726;2023-04-01T23:43:54;11.43;;;10.33;;
8803;SDS011;4438;50.890;4.726;2023-04-01T23:46:21;11.33;;;10.17;;
8803;SDS011;4438;50.890;4.726;2023-04-01T23:48:47;11.80;;;10.70;;
8803;SDS011;4438;50.890;4.726;2023-04-01T23:51:18;10.10;;;9.03;;
8803;SDS011;4438;50.890;4.726;2023-04-01T23:53:47;10.70;;;9.60;;
8803;SDS011;4438;50.890;4.726;2023-04-01T23:56:17;10.47;;;9.47;;
8803;SDS011;4438;50.890;4.726;2023-04-01T23:58:50;9.70;;;8.77;;
